sensor_id;sensor_type;location;lat;lon;timestamp;P1;durP1;ratioP1;P2;durP2;ratioP2
17866;SDS011;9059;49.934;8.650;2023-04-08T00:00:41;3.65;;;1.13;;
17866;SDS011;9059;49.934;8.650;2023-04-08T00:01:45;1.38;;;0.82;;
17866;SDS011;9059;49.934;8.650;2023-04-08T00:02:47;2.30;;;1.20;;
17866;SDS011;9059;49.934;8.650;2023-04-08T00:03:50;2.85;;;1.10;;
17866;SDS011;9059;49.934;8.650;2023-04-08T00:04:52;2.35;;;1.00;;
17866;SDS011;9059;49.934;8.650;2023-04-08T00:05:54;1.20;;;1.00;;
17866;SDS011;9059;49.934;8.650;2023-04-08T00:06:56;1.67;;;1.00;;
17866;SDS011;9059;49.934;8.650;2023-04-08T00:07:59;1.73;;;1.10;;
17866;SDS011;9059;49.934;8.650;2023-04-08T00:09:00;1.60;;;0.90;;
17866;SDS011;9059;49.934;8.650;2023-04-08T00:10:04;1.63;;;1.10;;
17866;SDS011;9059;49.934;8.650;2023-04-08T00:11:06;1.85;;;1.00;;
17866;SDS011;9059;49.934;8.650;2023-04-08T00:12:09;2.25;;;1.10;;
17866;SDS011;9059;49.934;8.650;2023-04-08T00:13:11;1.52;;;1.10;;
17866;SDS011;9059;49.934;8.650;2023-04-08T00:14:16;3.05;;;1.00;;
17866;SDS011;9059;49.934;8.650;2023-04-08T00:15:18;1.23;;;0.90;;
17866;SDS011;9059;49.934;8.650;2023-04-08T00:16:20;1.42;;;0.90;;
17866;SDS011;9059;49.934;8.650;2023-04-08T00:17:22;3.05;;;1.15;;
17866;SDS011;9059;49.934;8.650;2023-04-08T00:18:25;1.15;;;0.80;;
17866;SDS011;9059;49.934;8.650;2023-04-08T00:19:28;1.73;;;1.10;;
17866;SDS011;9059;49.934;8.650;2023-04-08T00:20:30;1.33;;;1.02;;
17866;SDS011;9059;49.934;8.650;2023-04-08T00:21:32;2.05;;;0.95;;
17866;SDS011;9059;49.934;8.650;2023-04-08T00:22:35;2.85;;;0.95;;
17866;SDS011;9059;49.934;8.650;2023-04-08T00:23:36;1.83;;;0.93;;
17866;SDS011;9059;49.934;8.650;2023-04-08T00:24:39;1.40;;;1.10;;
17866;SDS011;9059;49.934;8.650;2023-04-08T00:25:41;1.13;;;0.85;;
17866;SDS011;9059;49.934;8.650;2023-04-08T00:26:44;2.13;;;1.20;;
17866;SDS011;9059;49.934;8.650;2023-04-08T00:27:46;3.25;;;1.00;;
17866;SDS011;9059;49.934;8.650;2023-04-08T00:28:48;1.50;;;1.10;;
17866;SDS011;9059;49.934;8.650;2023-04-08T00:29:52;4.40;;;1.10;;
17866;SDS011;9059;49.934;8.650;2023-04-08T00:30:54;1.50;;;1.00;;
17866;SDS011;9059;49.934;8.650;2023-04-08T00:31:56;1.33;;;1.00;;
17866;SDS011;9059;49.934;8.650;2023-04-08T00:32:59;2.20;;;0.90;;
17866;SDS011;9059;49.934;8.650;2023-04-08T00:34:02;1.38;;;0.95;;
17866;SDS011;9059;49.934;8.650;2023-04-08T00:35:04;1.55;;;1.10;;
17866;SDS011;9059;49.934;8.650;2023-04-08T00:36:07;1.80;;;0.93;;
17866;SDS011;9059;49.934;8.650;2023-04-08T00:37:09;2.33;;;1.10;;
17866;SDS011;9059;49.934;8.650;2023-04-08T00:38:12;1.80;;;1.08;;
17866;SDS011;9059;49.934;8.650;2023-04-08T00:39:13;1.60;;;1.00;;
17866;SDS011;9059;49.934;8.650;2023-04-08T00:40:16;2.10;;;0.80;;
17866;SDS011;9059;49.934;8.650;2023-04-08T00:41:18;2.63;;;0.95;;
17866;SDS011;9059;49.934;8.650;2023-04-08T00:42:21;1.63;;;1.00;;
17866;SDS011;9059;49.934;8.650;2023-04-08T00:43:22;1.77;;;1.05;;
17866;SDS011;9059;49.934;8.650;2023-04-08T00:44:25;3.08;;;0.98;;
17866;SDS011;9059;49.934;8.650;2023-04-08T00:45:28;1.48;;;0.95;;
17866;SDS011;9059;49.934;8.650;2023-04-08T00:46:32;1.25;;;0.95;;
17866;SDS011;9059;49.934;8.650;2023-04-08T00:47:36;1.23;;;0.95;;
17866;SDS011;9059;49.934;8.650;2023-04-08T00:48:39;1.23;;;1.00;;
17866;SDS011;9059;49.934;8.650;2023-04-08T00:49:41;3.15;;;1.20;;
17866;SDS011;9059;49.934;8.650;2023-04-08T00:50:44;4.03;;;1.20;;
17866;SDS011;9059;49.934;8.650;2023-04-08T00:51:47;1.40;;;1.00;;
17866;SDS011;9059;49.934;8.650;2023-04-08T00:52:50;3.47;;;1.00;;
17866;SDS011;9059;49.934;8.650;2023-04-08T00:53:51;1.08;;;0.90;;
17866;SDS011;9059;49.934;8.650;2023-04-08T00:54:54;1.75;;;1.10;;
17866;SDS011;9059;49.934;8.650;2023-04-08T00:55:56;1.75;;;1.20;;
17866;SDS011;9059;49.934;8.650;2023-04-08T00:57:00;1.63;;;1.13;;
17866;SDS011;9059;49.934;8.650;2023-04-08T00:58:02;3.83;;;1.10;;
17866;SDS011;9059;49.934;8.650;2023-04-08T00:59:04;1.20;;;0.90;;
17866;SDS011;9059;49.934;8.650;2023-04-08T01:00:07;1.25;;;0.90;;
17866;SDS011;9059;49.934;8.650;2023-04-08T01:01:13;2.90;;;1.10;;
17866;SDS011;9059;49.934;8.650;2023-04-08T01:02:21;1.55;;;1.02;;
17866;SDS011;9059;49.934;8.650;2023-04-08T01:03:30;1.08;;;0.80;;
17866;SDS011;9059;49.934;8.650;2023-04-08T01:04:38;1.60;;;1.10;;
17866;SDS011;9059;49.934;8.650;2023-04-08T01:05:46;1.80;;;1.20;;
17866;SDS011;9059;49.934;8.650;2023-04-08T01:06:56;1.75;;;1.00;;
17866;SDS011;9059;49.934;8.650;2023-04-08T01:08:02;1.88;;;0.95;;
17866;SDS011;9059;49.934;8.650;2023-04-08T01:09:06;2.42;;;1.02;;
17866;SDS011;9059;49.934;8.650;2023-04-08T01:10:10;1.73;;;1.00;;
17866;SDS011;9059;49.934;8.650;2023-04-08T01:11:13;0.85;;;0.70;;
17866;SDS011;9059;49.934;8.650;2023-04-08T01:12:17;1.75;;;1.15;;
17866;SDS011;9059;49.934;8.650;2023-04-08T01:13:21;1.63;;;0.80;;
17866;SDS011;9059;49.934;8.650;2023-04-08T01:14:25;1.15;;;0.77;;
17866;SDS011;9059;49.934;8.650;2023-04-08T01:15:28;1.02;;;0.82;;
17866;SDS011;9059;49.934;8.650;2023-04-08T01:16:33;0.82;;;0.75;;
17866;SDS011;9059;49.934;8.650;2023-04-08T01:17:35;2.03;;;0.98;;
17866;SDS011;9059;49.934;8.650;2023-04-08T01:18:40;1.20;;;0.98;;
17866;SDS011;9059;49.934;8.650;2023-04-08T01:19:42;1.23;;;0.73;;
17866;SDS011;9059;49.934;8.650;2023-04-08T01:20:48;4.50;;;1.00;;
17866;SDS011;9059;49.934;8.650;2023-04-08T01:21:50;1.25;;;0.90;;
17866;SDS011;9059;49.934;8.650;2023-04-08T01:23:01;2.10;;;0.82;;
17866;SDS011;9059;49.934;8.650;2023-04-08T01:24:08;1.63;;;1.13;;
17866;SDS011;9059;49.934;8.650;2023-04-08T01:25:16;1.02;;;0.70;;
17866;SDS011;9059;49.934;8.650;2023-04-08T01:26:22;1.25;;;0.90;;
17866;SDS011;9059;49.934;8.650;2023-04-08T01:27:26;1.38;;;1.00;;
17866;SDS011;9059;49.934;8.650;2023-04-08T01:28:29;2.00;;;0.85;;
17866;SDS011;9059;49.934;8.650;2023-04-08T01:29:32;1.85;;;1.08;;
17866;SDS011;9059;49.934;8.650;2023-04-08T01:30:36;1.80;;;1.08;;
17866;SDS011;9059;49.934;8.650;2023-04-08T01:31:40;1.73;;;1.00;;
17866;SDS011;9059;49.934;8.650;2023-04-08T01:32:43;1.27;;;0.80;;
17866;SDS011;9059;49.934;8.650;2023-04-08T01:33:46;2.30;;;1.33;;
17866;SDS011;9059;49.934;8.650;2023-04-08T01:34:49;3.15;;;1.10;;
17866;SDS011;9059;49.934;8.650;2023-04-08T01:35:52;1.33;;;0.80;;
17866;SDS011;9059;49.934;8.650;2023-04-08T01:36:56;1.95;;;0.85;;
17866;SDS011;9059;49.934;8.650;2023-04-08T01:37:59;2.42;;;1.10;;
17866;SDS011;9059;49.934;8.650;2023-04-08T01:39:03;1.52;;;0.90;;
17866;SDS011;9059;49.934;8.650;2023-04-08T01:40:07;1.15;;;0.80;;
17866;SDS011;9059;49.934;8.650;2023-04-08T01:41:09;2.10;;;0.95;;
17866;SDS011;9059;49.934;8.650;2023-04-08T01:42:14;2.15;;;1.17;;
17866;SDS011;9059;49.934;8.650;2023-04-08T01:43:16;1.50;;;0.98;;
17866;SDS011;9059;49.934;8.650;2023-04-08T01:44:19;1.75;;;1.00;;
17866;SDS011;9059;49.934;8.650;2023-04-08T01:45:22;2.00;;;1.00;;
17866;SDS011;9059;49.934;8.650;2023-04-08T01:46:25;1.90;;;1.20;;
17866;SDS011;9059;49.934;8.650;2023-04-08T01:47:27;1.08;;;0.88;;
17866;SDS011;9059;49.934;8.650;2023-04-08T01:48:31;2.05;;;1.10;;
17866;SDS011;9059;49.934;8.650;2023-04-08T01:49:34;2.05;;;1.20;;
17866;SDS011;9059;49.934;8.650;2023-04-08T01:50:36;2.03;;;1.05;;
17866;SDS011;9059;49.934;8.650;2023-04-08T01:51:38;2.03;;;1.15;;
17866;SDS011;9059;49.934;8.650;2023-04-08T01:52:42;1.27;;;1.00;;
17866;SDS011;9059;49.934;8.650;2023-04-08T01:53:45;1.90;;;1.17;;
17866;SDS011;9059;49.934;8.650;2023-04-08T01:54:48;3.75;;;1.02;;
17866;SDS011;9059;49.934;8.650;2023-04-08T01:55:51;2.13;;;1.13;;
17866;SDS011;9059;49.934;8.650;2023-04-08T01:56:57;1.83;;;1.00;;
17866;SDS011;9059;49.934;8.650;2023-04-08T01:58:00;1.48;;;0.80;;
17866;SDS011;9059;49.934;8.650;2023-04-08T01:59:04;1.40;;;0.93;;
17866;SDS011;9059;49.934;8.650;2023-04-08T02:00:09;1.20;;;0.88;;
17866;SDS011;9059;49.934;8.650;2023-04-08T02:01:15;1.25;;;0.95;;
17866;SDS011;9059;49.934;8.650;2023-04-08T02:02:19;1.55;;;0.90;;
17866;SDS011;9059;49.934;8.650;2023-04-08T02:03:22;1.73;;;0.80;;
17866;SDS011;9059;49.934;8.650;2023-04-08T02:04:25;1.48;;;0.82;;
17866;SDS011;9059;49.934;8.650;2023-04-08T02:05:28;1.88;;;0.90;;
17866;SDS011;9059;49.934;8.650;2023-04-08T02:06:30;3.15;;;0.80;;
17866;SDS011;9059;49.934;8.650;2023-04-08T02:07:33;1.77;;;1.02;;
17866;SDS011;9059;49.934;8.650;2023-04-08T02:08:34;1.67;;;1.00;;
17866;SDS011;9059;49.934;8.650;2023-04-08T02:09:37;1.67;;;1.00;;
17866;SDS011;9059;49.934;8.650;2023-04-08T02:10:39;1.38;;;0.90;;
17866;SDS011;9059;49.934;8.650;2023-04-08T02:11:42;1.27;;;0.90;;
17866;SDS011;9059;49.934;8.650;2023-04-08T02:12:43;1.20;;;0.95;;
17866;SDS011;9059;49.934;8.650;2023-04-08T02:13:48;1.63;;;0.95;;
17866;SDS011;9059;49.934;8.650;2023-04-08T02:14:50;2.15;;;0.98;;
17866;SDS011;9059;49.934;8.650;2023-04-08T02:15:55;2.05;;;0.70;;
17866;SDS011;9059;49.934;8.650;2023-04-08T02:16:59;1.80;;;1.00;;
17866;SDS011;9059;49.934;8.650;2023-04-08T02:18:06;2.53;;;1.10;;
17866;SDS011;9059;49.934;8.650;2023-04-08T02:19:13;1.10;;;0.90;;
17866;SDS011;9059;49.934;8.650;2023-04-08T02:20:17;1.58;;;1.00;;
17866;SDS011;9059;49.934;8.650;2023-04-08T02:21:20;1.55;;;0.80;;
17866;SDS011;9059;49.934;8.650;2023-04-08T02:22:24;2.90;;;0.90;;
17866;SDS011;9059;49.934;8.650;2023-04-08T02:23:30;1.35;;;0.80;;
17866;SDS011;9059;49.934;8.650;2023-04-08T02:24:34;5.72;;;1.00;;
17866;SDS011;9059;49.934;8.650;2023-04-08T02:25:37;1.75;;;0.90;;
17866;SDS011;9059;49.934;8.650;2023-04-08T02:26:40;2.15;;;0.95;;
17866;SDS011;9059;49.934;8.650;2023-04-08T02:27:43;4.15;;;0.98;;
17866;SDS011;9059;49.934;8.650;2023-04-08T02:28:48;1.88;;;0.98;;
17866;SDS011;9059;49.934;8.650;2023-04-08T02:29:51;3.17;;;1.00;;
17866;SDS011;9059;49.934;8.650;2023-04-08T02:30:56;1.00;;;0.90;;
17866;SDS011;9059;49.934;8.650;2023-04-08T02:32:01;1.55;;;0.85;;
17866;SDS011;9059;49.934;8.650;2023-04-08T02:33:05;1.77;;;0.82;;
17866;SDS011;9059;49.934;8.650;2023-04-08T02:34:07;1.35;;;0.85;;
17866;SDS011;9059;49.934;8.650;2023-04-08T02:35:11;1.10;;;0.80;;
17866;SDS011;9059;49.934;8.650;2023-04-08T02:36:13;3.28;;;0.90;;
17866;SDS011;9059;49.934;8.650;2023-04-08T02:37:17;1.42;;;1.00;;
17866;SDS011;9059;49.934;8.650;2023-04-08T02:38:19;2.28;;;1.10;;
17866;SDS011;9059;49.934;8.650;2023-04-08T02:39:29;2.00;;;1.20;;
17866;SDS011;9059;49.934;8.650;2023-04-08T02:40:32;2.85;;;0.90;;
17866;SDS011;9059;49.934;8.650;2023-04-08T02:41:35;2.55;;;0.90;;
17866;SDS011;9059;49.934;8.650;2023-04-08T02:42:37;3.67;;;1.10;;
17866;SDS011;9059;49.934;8.650;2023-04-08T02:43:40;1.90;;;0.80;;
17866;SDS011;9059;49.934;8.650;2023-04-08T02:44:43;2.47;;;0.90;;
17866;SDS011;9059;49.934;8.650;2023-04-08T02:45:46;1.92;;;1.10;;
17866;SDS011;9059;49.934;8.650;2023-04-08T02:46:48;1.38;;;0.90;;
17866;SDS011;9059;49.934;8.650;2023-04-08T02:47:51;1.75;;;1.20;;
17866;SDS011;9059;49.934;8.650;2023-04-08T02:48:52;1.33;;;1.00;;
17866;SDS011;9059;49.934;8.650;2023-04-08T02:49:55;1.83;;;1.08;;
17866;SDS011;9059;49.934;8.650;2023-04-08T02:50:57;1.85;;;0.98;;
17866;SDS011;9059;49.934;8.650;2023-04-08T02:52:00;2.08;;;0.90;;
17866;SDS011;9059;49.934;8.650;2023-04-08T02:53:02;2.05;;;1.05;;
17866;SDS011;9059;49.934;8.650;2023-04-08T02:54:05;1.10;;;0.80;;
17866;SDS011;9059;49.934;8.650;2023-04-08T02:55:07;2.78;;;0.90;;
17866;SDS011;9059;49.934;8.650;2023-04-08T02:56:11;1.00;;;0.80;;
17866;SDS011;9059;49.934;8.650;2023-04-08T02:57:13;2.10;;;0.98;;
17866;SDS011;9059;49.934;8.650;2023-04-08T02:58:17;1.50;;;1.05;;
17866;SDS011;9059;49.934;8.650;2023-04-08T02:59:18;1.13;;;0.80;;
17866;SDS011;9059;49.934;8.650;2023-04-08T03:00:23;1.42;;;0.80;;
17866;SDS011;9059;49.934;8.650;2023-04-08T03:01:24;1.33;;;0.80;;
17866;SDS011;9059;49.934;8.650;2023-04-08T03:02:27;2.47;;;1.10;;
17866;SDS011;9059;49.934;8.650;2023-04-08T03:03:29;1.13;;;0.90;;
17866;SDS011;9059;49.934;8.650;2023-04-08T03:04:32;1.98;;;0.80;;
17866;SDS011;9059;49.934;8.650;2023-04-08T03:05:34;0.90;;;0.80;;
17866;SDS011;9059;49.934;8.650;2023-04-08T03:06:36;1.38;;;0.77;;
17866;SDS011;9059;49.934;8.650;2023-04-08T03:07:38;2.15;;;1.05;;
17866;SDS011;9059;49.934;8.650;2023-04-08T03:08:41;1.05;;;0.80;;
17866;SDS011;9059;49.934;8.650;2023-04-08T03:09:43;2.40;;;1.00;;
17866;SDS011;9059;49.934;8.650;2023-04-08T03:10:46;2.15;;;0.80;;
17866;SDS011;9059;49.934;8.650;2023-04-08T03:11:48;2.20;;;0.90;;
17866;SDS011;9059;49.934;8.650;2023-04-08T03:12:53;1.27;;;0.82;;
17866;SDS011;9059;49.934;8.650;2023-04-08T03:13:55;1.40;;;0.90;;
17866;SDS011;9059;49.934;8.650;2023-04-08T03:14:57;2.25;;;0.93;;
17866;SDS011;9059;49.934;8.650;2023-04-08T03:16:00;6.85;;;1.05;;
17866;SDS011;9059;49.934;8.650;2023-04-08T03:17:03;1.42;;;0.73;;
17866;SDS011;9059;49.934;8.650;2023-04-08T03:18:05;1.35;;;0.80;;
17866;SDS011;9059;49.934;8.650;2023-04-08T03:19:08;2.05;;;0.80;;
17866;SDS011;9059;49.934;8.650;2023-04-08T03:20:10;2.20;;;0.93;;
17866;SDS011;9059;49.934;8.650;2023-04-08T03:21:13;1.15;;;0.90;;
17866;SDS011;9059;49.934;8.650;2023-04-08T03:22:15;4.18;;;1.00;;
17866;SDS011;9059;49.934;8.650;2023-04-08T03:23:17;1.08;;;0.70;;
17866;SDS011;9059;49.934;8.650;2023-04-08T03:24:19;1.23;;;0.80;;
17866;SDS011;9059;49.934;8.650;2023-04-08T03:25:22;1.95;;;1.02;;
17866;SDS011;9059;49.934;8.650;2023-04-08T03:26:23;1.73;;;0.90;;
17866;SDS011;9059;49.934;8.650;2023-04-08T03:27:27;3.28;;;0.90;;
17866;SDS011;9059;49.934;8.650;2023-04-08T03:28:29;1.65;;;0.98;;
17866;SDS011;9059;49.934;8.650;2023-04-08T03:29:32;1.33;;;0.80;;
17866;SDS011;9059;49.934;8.650;2023-04-08T03:30:34;1.95;;;1.00;;
17866;SDS011;9059;49.934;8.650;2023-04-08T03:31:38;0.90;;;0.80;;
17866;SDS011;9059;49.934;8.650;2023-04-08T03:32:40;2.20;;;1.00;;
17866;SDS011;9059;49.934;8.650;2023-04-08T03:33:43;2.80;;;1.05;;
17866;SDS011;9059;49.934;8.650;2023-04-08T03:34:45;1.45;;;1.00;;
17866;SDS011;9059;49.934;8.650;2023-04-08T03:35:49;1.73;;;1.00;;
17866;SDS011;9059;49.934;8.650;2023-04-08T03:36:51;1.15;;;0.75;;
17866;SDS011;9059;49.934;8.650;2023-04-08T03:37:54;1.27;;;0.80;;
17866;SDS011;9059;49.934;8.650;2023-04-08T03:38:56;2.00;;;0.93;;
17866;SDS011;9059;49.934;8.650;2023-04-08T03:39:58;2.60;;;0.88;;
17866;SDS011;9059;49.934;8.650;2023-04-08T03:41:00;2.70;;;1.10;;
17866;SDS011;9059;49.934;8.650;2023-04-08T03:42:03;2.35;;;1.02;;
17866;SDS011;9059;49.934;8.650;2023-04-08T03:43:05;1.42;;;0.88;;
17866;SDS011;9059;49.934;8.650;2023-04-08T03:44:09;2.03;;;1.02;;
17866;SDS011;9059;49.934;8.650;2023-04-08T03:45:10;1.65;;;1.13;;
17866;SDS011;9059;49.934;8.650;2023-04-08T03:46:13;1.42;;;1.00;;
17866;SDS011;9059;49.934;8.650;2023-04-08T03:47:16;1.70;;;1.20;;
17866;SDS011;9059;49.934;8.650;2023-04-08T03:48:19;2.05;;;1.17;;
17866;SDS011;9059;49.934;8.650;2023-04-08T03:49:20;1.63;;;0.90;;
17866;SDS011;9059;49.934;8.650;2023-04-08T03:50:23;1.73;;;0.90;;
17866;SDS011;9059;49.934;8.650;2023-04-08T03:51:25;4.47;;;1.23;;
17866;SDS011;9059;49.934;8.650;2023-04-08T03:52:28;1.17;;;0.90;;
17866;SDS011;9059;49.934;8.650;2023-04-08T03:53:30;1.75;;;0.98;;
17866;SDS011;9059;49.934;8.650;2023-04-08T03:54:33;1.77;;;1.10;;
17866;SDS011;9059;49.934;8.650;2023-04-08T03:55:34;1.70;;;0.80;;
17866;SDS011;9059;49.934;8.650;2023-04-08T03:56:37;2.22;;;0.90;;
17866;SDS011;9059;49.934;8.650;2023-04-08T03:57:39;1.58;;;1.00;;
17866;SDS011;9059;49.934;8.650;2023-04-08T03:58:41;1.55;;;0.90;;
17866;SDS011;9059;49.934;8.650;2023-04-08T03:59:43;2.05;;;1.10;;
17866;SDS011;9059;49.934;8.650;2023-04-08T04:00:46;1.90;;;1.00;;
17866;SDS011;9059;49.934;8.650;2023-04-08T04:01:48;1.63;;;1.00;;
17866;SDS011;9059;49.934;8.650;2023-04-08T04:02:55;4.25;;;1.35;;
17866;SDS011;9059;49.934;8.650;2023-04-08T04:03:57;2.05;;;1.10;;
17866;SDS011;9059;49.934;8.650;2023-04-08T04:05:00;1.60;;;1.02;;
17866;SDS011;9059;49.934;8.650;2023-04-08T04:06:02;3.17;;;1.30;;
17866;SDS011;9059;49.934;8.650;2023-04-08T04:07:05;2.70;;;1.08;;
17866;SDS011;9059;49.934;8.650;2023-04-08T04:08:06;1.63;;;1.10;;
17866;SDS011;9059;49.934;8.650;2023-04-08T04:09:09;2.28;;;1.05;;
17866;SDS011;9059;49.934;8.650;2023-04-08T04:10:11;1.52;;;1.02;;
17866;SDS011;9059;49.934;8.650;2023-04-08T04:11:14;1.83;;;1.00;;
17866;SDS011;9059;49.934;8.650;2023-04-08T04:12:16;1.98;;;1.20;;
17866;SDS011;9059;49.934;8.650;2023-04-08T04:13:19;1.23;;;0.88;;
17866;SDS011;9059;49.934;8.650;2023-04-08T04:14:22;3.78;;;1.10;;
17866;SDS011;9059;49.934;8.650;2023-04-08T04:15:24;2.45;;;1.40;;
17866;SDS011;9059;49.934;8.650;2023-04-08T04:16:27;2.15;;;1.23;;
17866;SDS011;9059;49.934;8.650;2023-04-08T04:17:32;1.88;;;0.90;;
17866;SDS011;9059;49.934;8.650;2023-04-08T04:18:37;1.88;;;1.23;;
17866;SDS011;9059;49.934;8.650;2023-04-08T04:19:38;2.03;;;1.10;;
17866;SDS011;9059;49.934;8.650;2023-04-08T04:20:41;2.33;;;1.50;;
17866;SDS011;9059;49.934;8.650;2023-04-08T04:21:43;2.35;;;1.48;;
17866;SDS011;9059;49.934;8.650;2023-04-08T04:22:46;2.05;;;1.30;;
17866;SDS011;9059;49.934;8.650;2023-04-08T04:23:47;1.67;;;1.02;;
17866;SDS011;9059;49.934;8.650;2023-04-08T04:24:50;1.65;;;1.13;;
17866;SDS011;9059;49.934;8.650;2023-04-08T04:25:52;2.10;;;1.20;;
17866;SDS011;9059;49.934;8.650;2023-04-08T04:26:54;2.03;;;1.10;;
17866;SDS011;9059;49.934;8.650;2023-04-08T04:27:56;2.95;;;1.30;;
17866;SDS011;9059;49.934;8.650;2023-04-08T04:28:59;2.20;;;1.10;;
17866;SDS011;9059;49.934;8.650;2023-04-08T04:30:01;2.67;;;1.40;;
17866;SDS011;9059;49.934;8.650;2023-04-08T04:31:04;2.20;;;1.38;;
17866;SDS011;9059;49.934;8.650;2023-04-08T04:32:06;2.35;;;1.30;;
17866;SDS011;9059;49.934;8.650;2023-04-08T04:33:09;2.88;;;1.70;;
17866;SDS011;9059;49.934;8.650;2023-04-08T04:34:12;3.25;;;1.70;;
17866;SDS011;9059;49.934;8.650;2023-04-08T04:35:15;2.20;;;1.42;;
17866;SDS011;9059;49.934;8.650;2023-04-08T04:36:16;2.08;;;1.38;;
17866;SDS011;9059;49.934;8.650;2023-04-08T04:37:19;2.50;;;1.45;;
17866;SDS011;9059;49.934;8.650;2023-04-08T04:38:21;3.13;;;1.83;;
17866;SDS011;9059;49.934;8.650;2023-04-08T04:39:24;4.38;;;1.70;;
17866;SDS011;9059;49.934;8.650;2023-04-08T04:40:26;3.90;;;1.65;;
17866;SDS011;9059;49.934;8.650;2023-04-08T04:41:29;2.60;;;1.67;;
17866;SDS011;9059;49.934;8.650;2023-04-08T04:42:31;2.58;;;1.70;;
17866;SDS011;9059;49.934;8.650;2023-04-08T04:43:34;2.97;;;1.73;;
17866;SDS011;9059;49.934;8.650;2023-04-08T04:44:35;3.20;;;1.65;;
17866;SDS011;9059;49.934;8.650;2023-04-08T04:45:38;2.53;;;1.40;;
17866;SDS011;9059;49.934;8.650;2023-04-08T04:46:40;4.95;;;1.85;;
17866;SDS011;9059;49.934;8.650;2023-04-08T04:47:43;3.22;;;1.70;;
17866;SDS011;9059;49.934;8.650;2023-04-08T04:48:44;2.72;;;1.52;;
17866;SDS011;9059;49.934;8.650;2023-04-08T04:49:48;3.30;;;1.88;;
17866;SDS011;9059;49.934;8.650;2023-04-08T04:50:53;2.90;;;1.60;;
17866;SDS011;9059;49.934;8.650;2023-04-08T04:51:56;7.10;;;2.33;;
17866;SDS011;9059;49.934;8.650;2023-04-08T04:52:58;3.38;;;2.20;;
17866;SDS011;9059;49.934;8.650;2023-04-08T04:54:01;4.00;;;2.03;;
17866;SDS011;9059;49.934;8.650;2023-04-08T04:55:02;5.20;;;2.20;;
17866;SDS011;9059;49.934;8.650;2023-04-08T04:56:06;3.35;;;1.75;;
17866;SDS011;9059;49.934;8.650;2023-04-08T04:57:08;2.50;;;1.77;;
17866;SDS011;9059;49.934;8.650;2023-04-08T04:58:11;3.77;;;2.20;;
17866;SDS011;9059;49.934;8.650;2023-04-08T04:59:13;3.47;;;1.90;;
17866;SDS011;9059;49.934;8.650;2023-04-08T05:00:16;3.37;;;1.80;;
17866;SDS011;9059;49.934;8.650;2023-04-08T05:01:17;3.33;;;1.90;;
17866;SDS011;9059;49.934;8.650;2023-04-08T05:02:20;3.13;;;1.63;;
17866;SDS011;9059;49.934;8.650;2023-04-08T05:03:22;3.60;;;1.98;;
17866;SDS011;9059;49.934;8.650;2023-04-08T05:04:25;5.88;;;2.10;;
17866;SDS011;9059;49.934;8.650;2023-04-08T05:05:28;2.80;;;1.85;;
17866;SDS011;9059;49.934;8.650;2023-04-08T05:06:31;3.93;;;2.30;;
17866;SDS011;9059;49.934;8.650;2023-04-08T05:07:34;4.40;;;1.52;;
17866;SDS011;9059;49.934;8.650;2023-04-08T05:08:37;3.60;;;1.93;;
17866;SDS011;9059;49.934;8.650;2023-04-08T05:09:39;4.35;;;2.20;;
17866;SDS011;9059;49.934;8.650;2023-04-08T05:10:41;3.13;;;1.92;;
17866;SDS011;9059;49.934;8.650;2023-04-08T05:11:43;6.03;;;2.03;;
17866;SDS011;9059;49.934;8.650;2023-04-08T05:12:46;5.23;;;2.23;;
17866;SDS011;9059;49.934;8.650;2023-04-08T05:13:48;6.50;;;2.07;;
17866;SDS011;9059;49.934;8.650;2023-04-08T05:14:50;3.90;;;1.80;;
17866;SDS011;9059;49.934;8.650;2023-04-08T05:15:52;4.60;;;1.85;;
17866;SDS011;9059;49.934;8.650;2023-04-08T05:16:55;3.15;;;1.98;;
17866;SDS011;9059;49.934;8.650;2023-04-08T05:17:57;3.13;;;1.85;;
17866;SDS011;9059;49.934;8.650;2023-04-08T05:19:00;5.73;;;2.27;;
17866;SDS011;9059;49.934;8.650;2023-04-08T05:20:02;4.27;;;2.23;;
17866;SDS011;9059;49.934;8.650;2023-04-08T05:21:06;4.30;;;2.13;;
17866;SDS011;9059;49.934;8.650;2023-04-08T05:22:08;5.60;;;2.33;;
17866;SDS011;9059;49.934;8.650;2023-04-08T05:23:11;4.95;;;2.00;;
17866;SDS011;9059;49.934;8.650;2023-04-08T05:24:13;5.57;;;2.03;;
17866;SDS011;9059;49.934;8.650;2023-04-08T05:25:15;2.43;;;1.33;;
17866;SDS011;9059;49.934;8.650;2023-04-08T05:26:17;3.75;;;1.00;;
17866;SDS011;9059;49.934;8.650;2023-04-08T05:27:20;1.77;;;0.98;;
17866;SDS011;9059;49.934;8.650;2023-04-08T05:28:22;2.60;;;1.20;;
17866;SDS011;9059;49.934;8.650;2023-04-08T05:29:25;2.70;;;1.38;;
17866;SDS011;9059;49.934;8.650;2023-04-08T05:30:27;5.07;;;1.47;;
17866;SDS011;9059;49.934;8.650;2023-04-08T05:31:30;2.25;;;1.13;;
17866;SDS011;9059;49.934;8.650;2023-04-08T05:32:32;4.20;;;1.20;;
17866;SDS011;9059;49.934;8.650;2023-04-08T05:33:35;2.50;;;1.40;;
17866;SDS011;9059;49.934;8.650;2023-04-08T05:34:36;3.67;;;1.57;;
17866;SDS011;9059;49.934;8.650;2023-04-08T05:35:39;1.60;;;1.17;;
17866;SDS011;9059;49.934;8.650;2023-04-08T05:36:42;2.80;;;1.48;;
17866;SDS011;9059;49.934;8.650;2023-04-08T05:37:45;2.37;;;1.30;;
17866;SDS011;9059;49.934;8.650;2023-04-08T05:38:48;4.37;;;1.40;;
17866;SDS011;9059;49.934;8.650;2023-04-08T05:39:50;2.53;;;1.13;;
17866;SDS011;9059;49.934;8.650;2023-04-08T05:40:53;1.67;;;1.13;;
17866;SDS011;9059;49.934;8.650;2023-04-08T05:41:54;2.43;;;1.33;;
17866;SDS011;9059;49.934;8.650;2023-04-08T05:42:57;3.17;;;1.33;;
17866;SDS011;9059;49.934;8.650;2023-04-08T05:43:59;2.20;;;1.40;;
17866;SDS011;9059;49.934;8.650;2023-04-08T05:45:02;1.90;;;1.20;;
17866;SDS011;9059;49.934;8.650;2023-04-08T05:46:07;3.65;;;1.60;;
17866;SDS011;9059;49.934;8.650;2023-04-08T05:47:09;2.93;;;1.70;;
17866;SDS011;9059;49.934;8.650;2023-04-08T05:48:12;3.80;;;1.80;;
17866;SDS011;9059;49.934;8.650;2023-04-08T05:49:14;3.13;;;1.70;;
17866;SDS011;9059;49.934;8.650;2023-04-08T05:50:17;3.93;;;1.70;;
17866;SDS011;9059;49.934;8.650;2023-04-08T05:51:20;2.10;;;1.40;;
17866;SDS011;9059;49.934;8.650;2023-04-08T05:52:23;3.50;;;1.73;;
17866;SDS011;9059;49.934;8.650;2023-04-08T05:53:25;2.53;;;1.67;;
17866;SDS011;9059;49.934;8.650;2023-04-08T05:54:27;7.00;;;1.80;;
17866;SDS011;9059;49.934;8.650;2023-04-08T05:55:30;3.40;;;1.50;;
17866;SDS011;9059;49.934;8.650;2023-04-08T05:56:32;2.67;;;1.60;;
17866;SDS011;9059;49.934;8.650;2023-04-08T05:57:35;2.70;;;1.67;;
17866;SDS011;9059;49.934;8.650;2023-04-08T05:58:36;2.80;;;1.63;;
17866;SDS011;9059;49.934;8.650;2023-04-08T05:59:39;4.33;;;1.80;;
17866;SDS011;9059;49.934;8.650;2023-04-08T06:00:41;3.40;;;2.10;;
17866;SDS011;9059;49.934;8.650;2023-04-08T06:01:44;3.65;;;2.08;;
17866;SDS011;9059;49.934;8.650;2023-04-08T06:02:46;4.97;;;1.97;;
17866;SDS011;9059;49.934;8.650;2023-04-08T06:03:49;3.22;;;1.98;;
17866;SDS011;9059;49.934;8.650;2023-04-08T06:04:53;3.30;;;1.80;;
17866;SDS011;9059;49.934;8.650;2023-04-08T06:05:55;2.73;;;1.77;;
17866;SDS011;9059;49.934;8.650;2023-04-08T06:06:57;5.17;;;1.90;;
17866;SDS011;9059;49.934;8.650;2023-04-08T06:08:04;2.97;;;1.97;;
17866;SDS011;9059;49.934;8.650;2023-04-08T06:09:06;5.20;;;2.15;;
17866;SDS011;9059;49.934;8.650;2023-04-08T06:10:10;4.00;;;1.77;;
17866;SDS011;9059;49.934;8.650;2023-04-08T06:11:11;3.60;;;2.10;;
17866;SDS011;9059;49.934;8.650;2023-04-08T06:12:14;5.20;;;2.30;;
17866;SDS011;9059;49.934;8.650;2023-04-08T06:13:16;3.78;;;2.15;;
17866;SDS011;9059;49.934;8.650;2023-04-08T06:14:20;5.13;;;2.23;;
17866;SDS011;9059;49.934;8.650;2023-04-08T06:15:22;3.63;;;2.20;;
17866;SDS011;9059;49.934;8.650;2023-04-08T06:16:24;3.43;;;2.30;;
17866;SDS011;9059;49.934;8.650;2023-04-08T06:17:27;4.23;;;2.40;;
17866;SDS011;9059;49.934;8.650;2023-04-08T06:18:29;5.22;;;2.50;;
17866;SDS011;9059;49.934;8.650;2023-04-08T06:19:31;3.40;;;1.90;;
17866;SDS011;9059;49.934;8.650;2023-04-08T06:20:34;7.13;;;1.90;;
17866;SDS011;9059;49.934;8.650;2023-04-08T06:21:36;3.85;;;2.30;;
17866;SDS011;9059;49.934;8.650;2023-04-08T06:22:38;5.10;;;1.90;;
17866;SDS011;9059;49.934;8.650;2023-04-08T06:23:42;6.15;;;2.38;;
17866;SDS011;9059;49.934;8.650;2023-04-08T06:24:45;5.80;;;2.47;;